Terminal Aerodrome Forecast
Issued by NWS

Home | Current Version | Previous Version | Text Only | Print | Product List | Glossary On
Versions: 1 2 3 4 5 6 7 8 9 10 11 12 13 14 15 16 17
472
FTUS46 KSTO 070527
TAFSMF
TAF
KSMF 070527Z 0706/0806 36005KT P6SM SCT250
     FM071300 32005KT 4SM BR SCT002
      TEMPO 0714/0717 1/2SM FG
     FM071900 34005KT P6SM OVC150
     FM080200 17004KT 4SM -RA OVC050=

USA.gov is the U.S. government's official web portal to all federal, state and local government web resources and services.